createdAt,value
2022-09-27T00:00:07.570Z,3.40
2022-09-27T00:02:34.238Z,2.42
2022-09-27T00:05:00.828Z,2.33
2022-09-27T00:07:27.253Z,2.92
2022-09-27T00:09:53.694Z,2.58
2022-09-27T00:12:20.146Z,2.33
2022-09-27T00:14:46.649Z,2.88
2022-09-27T00:17:13.098Z,2.75
2022-09-27T00:19:39.554Z,3.58
2022-09-27T00:22:06.195Z,3.03
2022-09-27T00:24:32.711Z,3.17
2022-09-27T00:26:59.360Z,3.67
2022-09-27T00:29:25.953Z,2.83
2022-09-27T00:31:52.394Z,3.13
2022-09-27T00:34:24.257Z,2.85
2022-09-27T00:36:52.184Z,2.53
2022-09-27T00:39:19.246Z,2.15
2022-09-27T00:41:46.296Z,2.28
2022-09-27T00:44:24.974Z,2.10
2022-09-27T00:47:21.302Z,2.47
2022-09-27T00:49:56.526Z,2.50
2022-09-27T00:52:49.119Z,3.35
2022-09-27T00:55:24.589Z,3.35
2022-09-27T00:57:51.685Z,3.60
2022-09-27T01:00:18.594Z,3.20
2022-09-27T01:02:49.513Z,3.50
2022-09-27T01:05:19.909Z,3.20
2022-09-27T01:07:46.467Z,3.80
2022-09-27T01:10:14.174Z,3.55
2022-09-27T01:12:43.252Z,3.65
2022-09-27T01:15:16.881Z,2.95
2022-09-27T01:18:21.591Z,2.20
2022-09-27T01:21:12.554Z,2.40
2022-09-27T01:24:06.569Z,2.35
2022-09-27T01:26:47.343Z,2.08
2022-09-27T01:29:28.677Z,2.15
2022-09-27T01:32:21.076Z,2.20
2022-09-27T01:34:50.968Z,2.42
2022-09-27T01:37:44.469Z,3.45
2022-09-27T01:40:35.506Z,2.40
2022-09-27T01:43:23.339Z,3.70
2022-09-27T01:45:59.243Z,3.10
2022-09-27T01:48:35.209Z,2.85
2022-09-27T01:51:13.785Z,2.97
2022-09-27T01:53:44.790Z,3.53
2022-09-27T01:56:18.234Z,3.22
2022-09-27T01:59:22.755Z,3.65
2022-09-27T02:01:52.059Z,5.55
2022-09-27T02:06:59.359Z,3.90
2022-09-27T02:09:34.358Z,4.80
2022-09-27T02:12:06.465Z,5.20
2022-09-27T02:14:51.653Z,5.57
2022-09-27T02:17:38.154Z,4.90
2022-09-27T02:20:26.741Z,5.38
2022-09-27T02:23:18.649Z,4.20
2022-09-27T02:26:01.652Z,4.05
2022-09-27T02:28:53.879Z,4.07
2022-09-27T02:31:20.801Z,4.03
2022-09-27T02:33:52.541Z,3.92
2022-09-27T02:36:20.077Z,4.00
2022-09-27T02:38:46.625Z,4.18
2022-09-27T02:41:18.043Z,4.35
2022-09-27T02:43:47.150Z,4.03
2022-09-27T02:46:44.072Z,3.92
2022-09-27T02:49:29.709Z,4.40
2022-09-27T02:52:14.238Z,4.00
2022-09-27T02:55:19.485Z,4.03
2022-09-27T02:58:07.163Z,3.67
2022-09-27T03:00:48.366Z,4.25
2022-09-27T03:03:21.128Z,3.70
2022-09-27T03:05:54.630Z,3.60
2022-09-27T03:08:21.491Z,3.15
2022-09-27T03:10:48.585Z,3.72
2022-09-27T03:13:15.070Z,2.95
2022-09-27T03:15:41.528Z,2.80
2022-09-27T03:18:07.961Z,2.67
2022-09-27T03:20:34.493Z,2.72
2022-09-27T03:23:00.941Z,2.60
2022-09-27T03:25:27.406Z,2.20
2022-09-27T03:27:54.093Z,2.40
2022-09-27T03:30:20.569Z,1.92
2022-09-27T03:32:47.091Z,1.92
2022-09-27T03:35:14.091Z,2.42
2022-09-27T03:37:41.584Z,2.10
2022-09-27T03:40:08.510Z,2.00
2022-09-27T03:42:35.094Z,1.75
2022-09-27T03:45:01.954Z,2.10
2022-09-27T03:47:28.383Z,2.38
2022-09-27T03:49:54.806Z,2.58
2022-09-27T03:52:21.289Z,2.63
2022-09-27T03:54:47.942Z,2.50
2022-09-27T03:57:14.572Z,2.20
2022-09-27T03:59:41.094Z,2.50
2022-09-27T04:02:07.581Z,3.03
2022-09-27T04:04:34.061Z,3.58
2022-09-27T04:07:00.580Z,2.90
2022-09-27T04:09:27.014Z,2.92
2022-09-27T04:11:53.438Z,3.38
2022-09-27T04:14:19.958Z,2.70
2022-09-27T04:16:46.458Z,2.58
2022-09-27T04:19:13.123Z,2.30
2022-09-27T04:21:39.907Z,2.50
2022-09-27T04:24:06.538Z,2.17
2022-09-27T04:26:32.982Z,2.17
2022-09-27T04:28:59.501Z,2.55
2022-09-27T04:31:26.033Z,2.65
2022-09-27T04:33:53.805Z,2.00
2022-09-27T04:36:28.513Z,1.90
2022-09-27T04:39:00.629Z,1.80
2022-09-27T04:41:28.351Z,2.47
2022-09-27T04:43:59.175Z,2.10
2022-09-27T04:46:26.639Z,1.98
2022-09-27T04:48:53.145Z,1.75
2022-09-27T04:51:20.103Z,1.58
2022-09-27T04:53:47.177Z,2.10
2022-09-27T04:56:15.877Z,1.63
2022-09-27T04:58:42.320Z,1.60
2022-09-27T05:01:09.377Z,1.65
2022-09-27T05:03:36.009Z,1.70
2022-09-27T05:06:02.868Z,1.63
2022-09-27T05:08:29.411Z,1.98
2022-09-27T05:10:55.881Z,1.90
2022-09-27T05:13:22.472Z,1.60
2022-09-27T05:15:49.033Z,1.52
2022-09-27T05:18:15.587Z,1.50
2022-09-27T05:20:42.077Z,1.70
2022-09-27T05:23:08.510Z,1.30
2022-09-27T05:25:35.392Z,1.50
2022-09-27T05:28:02.664Z,1.35
2022-09-27T05:30:29.396Z,1.88
2022-09-27T05:32:55.917Z,1.67
2022-09-27T05:35:23.023Z,1.48
2022-09-27T05:37:54.445Z,1.38
2022-09-27T05:40:40.362Z,1.40
2022-09-27T05:43:08.378Z,1.33
2022-09-27T05:45:34.821Z,1.70
2022-09-27T05:48:01.915Z,1.83
2022-09-27T05:50:28.459Z,1.30
2022-09-27T05:52:55.113Z,1.42
2022-09-27T05:55:21.836Z,1.52
2022-09-27T05:58:00.193Z,1.55
2022-09-27T06:00:27.825Z,2.35
2022-09-27T06:02:59.636Z,2.28
2022-09-27T06:05:28.592Z,1.70
2022-09-27T06:08:03.509Z,1.80
2022-09-27T06:10:31.281Z,1.55
2022-09-27T06:13:07.504Z,1.50
2022-09-27T06:15:36.085Z,1.40
2022-09-27T06:18:05.285Z,1.73
2022-09-27T06:20:31.982Z,1.38
2022-09-27T06:23:06.945Z,1.10
2022-09-27T06:25:34.518Z,1.40
2022-09-27T06:28:01.534Z,1.60
2022-09-27T06:30:28.280Z,1.63
2022-09-27T06:33:02.552Z,1.38
2022-09-27T06:35:29.894Z,1.83
2022-09-27T06:37:56.346Z,1.33
2022-09-27T06:40:26.998Z,1.77
2022-09-27T06:42:53.608Z,1.42
2022-09-27T06:45:20.245Z,1.52
2022-09-27T06:47:47.000Z,1.38
2022-09-27T06:50:14.333Z,1.25
2022-09-27T06:52:48.305Z,1.27
2022-09-27T06:55:15.568Z,1.52
2022-09-27T06:58:00.646Z,1.48
2022-09-27T07:00:27.524Z,1.20
2022-09-27T07:03:00.865Z,1.30
2022-09-27T07:05:29.160Z,1.00
2022-09-27T07:07:58.590Z,1.08
2022-09-27T07:10:26.730Z,0.95
2022-09-27T07:12:53.353Z,1.15
2022-09-27T07:15:23.546Z,1.20
2022-09-27T07:17:58.222Z,1.33
2022-09-27T07:20:26.027Z,1.35
2022-09-27T07:22:53.214Z,1.20
2022-09-27T07:25:19.942Z,1.20
2022-09-27T07:27:46.443Z,1.30
2022-09-27T07:30:13.713Z,1.08
2022-09-27T07:32:40.474Z,1.30
2022-09-27T07:35:08.213Z,1.20
2022-09-27T07:37:37.220Z,1.17
2022-09-27T07:40:09.317Z,1.52
2022-09-27T07:42:41.142Z,1.40
2022-09-27T07:45:11.518Z,1.52
2022-09-27T07:47:41.803Z,1.38
2022-09-27T07:50:12.514Z,1.30
2022-09-27T07:52:43.958Z,1.33
2022-09-27T07:55:11.735Z,1.33
2022-09-27T07:57:38.921Z,1.15
2022-09-27T08:00:08.211Z,1.50
2022-09-27T08:02:34.837Z,1.20
2022-09-27T08:05:02.542Z,1.48
2022-09-27T08:07:29.844Z,1.30
2022-09-27T08:09:56.470Z,1.58
2022-09-27T08:12:22.971Z,1.50
2022-09-27T08:14:49.653Z,1.30
2022-09-27T08:17:19.795Z,1.00
2022-09-27T08:19:48.195Z,1.00
2022-09-27T08:22:14.806Z,1.45
2022-09-27T08:24:41.548Z,2.17
2022-09-27T08:27:11.818Z,2.58
2022-09-27T08:29:41.596Z,2.30
2022-09-27T08:34:35.197Z,1.92
2022-09-27T08:37:02.260Z,1.67
2022-09-27T08:39:28.762Z,1.73
2022-09-27T08:42:02.185Z,1.80
2022-09-27T08:44:46.977Z,1.70
2022-09-27T08:47:23.634Z,1.40
2022-09-27T08:50:04.325Z,1.55
2022-09-27T08:52:37.049Z,1.60
2022-09-27T08:55:14.594Z,1.30
2022-09-27T08:57:41.173Z,1.40
2022-09-27T09:00:11.921Z,1.40
2022-09-27T09:02:38.540Z,0.90
2022-09-27T09:05:13.205Z,1.20
2022-09-27T09:08:04.450Z,1.23
2022-09-27T09:10:58.842Z,1.50
2022-09-27T09:13:56.156Z,1.38
2022-09-27T09:16:43.025Z,1.33
2022-09-27T09:19:43.099Z,1.27
2022-09-27T09:22:13.345Z,1.20
2022-09-27T09:24:51.920Z,1.33
2022-09-27T09:27:33.380Z,1.50
2022-09-27T09:30:14.986Z,1.50
2022-09-27T09:32:51.839Z,1.70
2022-09-27T09:35:24.593Z,1.40
2022-09-27T09:37:57.433Z,1.63
2022-09-27T09:40:34.827Z,1.80
2022-09-27T09:43:04.309Z,1.98
2022-09-27T09:45:41.354Z,1.70
2022-09-27T09:48:31.314Z,1.92
2022-09-27T09:51:01.292Z,2.45
2022-09-27T09:53:44.124Z,2.30
2022-09-27T09:56:49.296Z,2.38
2022-09-27T09:59:24.690Z,2.10
2022-09-27T10:01:55.802Z,1.88
2022-09-27T10:04:26.693Z,1.90
2022-09-27T10:06:54.902Z,2.05
2022-09-27T10:09:24.983Z,2.25
2022-09-27T10:11:51.459Z,1.55
2022-09-27T10:14:19.937Z,1.58
2022-09-27T10:16:50.465Z,1.80
2022-09-27T10:19:26.742Z,1.60
2022-09-27T10:21:53.807Z,1.80
2022-09-27T10:24:20.670Z,1.73
2022-09-27T10:26:49.422Z,1.60
2022-09-27T10:29:38.193Z,2.03
2022-09-27T10:32:20.998Z,1.92
2022-09-27T10:34:48.069Z,1.50
2022-09-27T10:37:18.965Z,1.75
2022-09-27T10:39:47.459Z,1.38
2022-09-27T10:42:38.546Z,1.50
2022-09-27T10:45:42.101Z,1.70
2022-09-27T10:48:20.625Z,1.50
2022-09-27T10:50:59.979Z,1.55
2022-09-27T10:53:29.230Z,1.58
2022-09-27T10:55:56.532Z,1.48
2022-09-27T10:58:27.653Z,1.48
2022-09-27T11:01:14.319Z,2.35
2022-09-27T11:03:53.590Z,2.30
2022-09-27T11:06:29.366Z,2.13
2022-09-27T11:09:09.692Z,1.90
2022-09-27T11:11:36.585Z,1.60
2022-09-27T11:14:19.931Z,1.83
2022-09-27T11:17:04.970Z,2.08
2022-09-27T11:19:46.537Z,2.00
2022-09-27T11:22:35.641Z,1.88
2022-09-27T11:25:04.781Z,1.73
2022-09-27T11:27:34.180Z,2.17
2022-09-27T11:30:04.082Z,1.70
2022-09-27T11:32:48.699Z,2.70
2022-09-27T11:36:01.193Z,2.15
2022-09-27T11:38:52.832Z,2.15
2022-09-27T11:41:55.854Z,2.60
2022-09-27T11:45:31.947Z,2.30
2022-09-27T11:48:03.798Z,2.00
2022-09-27T11:50:39.093Z,1.95
2022-09-27T11:53:28.102Z,2.10
2022-09-27T11:56:31.691Z,2.70
2022-09-27T11:59:37.740Z,2.17
2022-09-27T12:02:13.532Z,2.00
2022-09-27T12:05:07.150Z,2.35
2022-09-27T12:07:39.844Z,2.30
2022-09-27T12:10:14.042Z,2.40
2022-09-27T12:12:45.282Z,1.83
2022-09-27T12:15:20.469Z,1.88
2022-09-27T12:17:52.125Z,2.20
2022-09-27T12:20:31.134Z,2.08
2022-09-27T12:23:03.047Z,1.80
2022-09-27T12:25:31.981Z,2.08
2022-09-27T12:28:08.609Z,2.03
2022-09-27T12:30:41.426Z,2.60
2022-09-27T12:33:23.703Z,2.20
2022-09-27T12:35:59.142Z,2.30
2022-09-27T12:38:41.678Z,2.60
2022-09-27T12:41:13.894Z,2.00
2022-09-27T12:43:47.374Z,2.10
2022-09-27T12:46:30.194Z,1.70
2022-09-27T12:49:00.218Z,1.77
2022-09-27T12:51:38.466Z,1.67
2022-09-27T12:54:13.614Z,1.60
2022-09-27T12:56:49.737Z,2.10
2022-09-27T12:59:34.593Z,1.48
2022-09-27T13:02:17.351Z,2.00
2022-09-27T13:05:07.466Z,2.08
2022-09-27T13:08:11.366Z,1.60
2022-09-27T13:11:04.761Z,1.35
2022-09-27T13:13:36.404Z,1.55
2022-09-27T13:16:04.937Z,1.30
2022-09-27T13:18:35.223Z,0.95
2022-09-27T13:21:06.784Z,1.17
2022-09-27T13:23:39.203Z,0.82
2022-09-27T13:26:42.939Z,0.90
2022-09-27T13:29:27.770Z,1.17
2022-09-27T13:31:54.095Z,1.00
2022-09-27T13:34:51.727Z,1.00
2022-09-27T13:37:44.372Z,1.45
2022-09-27T13:40:16.595Z,1.30
2022-09-27T13:43:07.726Z,1.00
2022-09-27T13:45:35.959Z,0.80
2022-09-27T13:48:14.306Z,0.90
2022-09-27T13:50:51.765Z,0.88
2022-09-27T13:53:30.491Z,1.60
2022-09-27T13:55:57.237Z,0.90
2022-09-27T13:58:55.952Z,0.80
2022-09-27T14:01:33.461Z,0.80
2022-09-27T14:04:04.828Z,1.20
2022-09-27T14:06:41.623Z,1.30
2022-09-27T14:09:18.063Z,1.25
2022-09-27T14:11:51.907Z,1.20
2022-09-27T14:14:24.125Z,1.55
2022-09-27T14:16:51.014Z,1.55
2022-09-27T14:19:25.449Z,1.65
2022-09-27T14:21:55.786Z,1.42
2022-09-27T14:24:37.479Z,1.40
2022-09-27T14:27:20.304Z,1.38
2022-09-27T14:30:00.799Z,1.30
2022-09-27T14:32:33.726Z,1.20
2022-09-27T14:35:33.867Z,1.63
2022-09-27T14:38:20.780Z,1.30
2022-09-27T14:41:00.043Z,1.67
2022-09-27T14:43:28.014Z,1.98
2022-09-27T14:46:00.771Z,1.77
2022-09-27T14:48:37.033Z,1.55
2022-09-27T14:51:19.314Z,1.33
2022-09-27T14:53:53.477Z,1.42
2022-09-27T14:56:23.486Z,1.50
2022-09-27T14:58:56.484Z,1.38
2022-09-27T15:01:23.700Z,1.30
2022-09-27T15:03:50.680Z,1.50
2022-09-27T15:06:17.660Z,1.40
2022-09-27T15:08:47.483Z,1.50
2022-09-27T15:11:13.959Z,1.58
2022-09-27T15:13:43.097Z,1.80
2022-09-27T15:16:18.746Z,1.75
2022-09-27T15:18:47.816Z,1.52
2022-09-27T15:21:27.651Z,1.92
2022-09-27T15:23:55.338Z,1.58
2022-09-27T15:26:27.249Z,1.40
2022-09-27T15:28:53.804Z,1.40
2022-09-27T15:31:31.661Z,1.30
2022-09-27T15:33:59.061Z,0.90
2022-09-27T15:36:49.862Z,0.77
2022-09-27T15:39:19.258Z,1.20
2022-09-27T15:44:54.232Z,1.10
2022-09-27T15:47:34.421Z,0.90
2022-09-27T15:50:16.213Z,0.95
2022-09-27T15:52:51.129Z,1.13
2022-09-27T15:55:26.699Z,1.10
2022-09-27T15:57:59.213Z,1.38
2022-09-27T16:00:26.598Z,1.38
2022-09-27T16:02:53.829Z,1.38
2022-09-27T16:05:20.875Z,1.58
2022-09-27T16:07:47.280Z,1.27
2022-09-27T16:10:18.855Z,1.50
2022-09-27T16:12:45.636Z,1.15
2022-09-27T16:15:13.913Z,1.10
2022-09-27T16:17:42.596Z,1.63
2022-09-27T16:20:17.454Z,1.77
2022-09-27T16:22:44.060Z,1.60
2022-09-27T16:25:10.546Z,1.65
2022-09-27T16:27:37.178Z,1.50
2022-09-27T16:30:03.833Z,1.50
2022-09-27T16:32:30.345Z,1.40
2022-09-27T16:34:57.249Z,1.92
2022-09-27T16:37:23.698Z,1.48
2022-09-27T16:39:50.152Z,1.92
2022-09-27T16:42:33.287Z,1.27
2022-09-27T16:45:07.449Z,1.67
2022-09-27T16:47:43.539Z,1.70
2022-09-27T16:50:31.652Z,1.80
2022-09-27T16:52:59.976Z,1.83
2022-09-27T16:55:28.552Z,2.03
2022-09-27T16:57:58.561Z,1.80
2022-09-27T17:00:25.346Z,2.03
2022-09-27T17:02:52.948Z,1.95
2022-09-27T17:05:20.151Z,1.90
2022-09-27T17:07:50.655Z,2.00
2022-09-27T17:10:17.876Z,2.47
2022-09-27T17:12:44.442Z,2.00
2022-09-27T17:15:10.846Z,2.45
2022-09-27T17:17:37.261Z,2.65
2022-09-27T17:20:04.694Z,2.40
2022-09-27T17:22:31.495Z,2.45
2022-09-27T17:24:57.924Z,2.80
2022-09-27T17:27:27.116Z,2.90
2022-09-27T17:29:54.578Z,2.35
2022-09-27T17:32:22.341Z,2.83
2022-09-27T17:34:48.741Z,3.05
2022-09-27T17:37:15.138Z,3.15
2022-09-27T17:39:41.695Z,3.80
2022-09-27T17:42:08.761Z,4.18
2022-09-27T17:44:35.757Z,3.15
2022-09-27T17:47:20.750Z,2.65
2022-09-27T17:50:06.093Z,3.00
2022-09-27T17:52:34.232Z,2.55
2022-09-27T17:55:00.733Z,3.17
2022-09-27T17:57:27.171Z,3.40
2022-09-27T17:59:53.597Z,6.28
2022-09-27T18:02:20.740Z,4.03
2022-09-27T18:04:47.273Z,5.25
2022-09-27T18:07:13.810Z,5.03
2022-09-27T18:09:40.241Z,5.63
2022-09-27T18:12:06.639Z,5.85
2022-09-27T18:14:33.501Z,6.20
2022-09-27T18:16:59.947Z,4.82
2022-09-27T18:19:26.483Z,5.30
2022-09-27T18:21:53.610Z,5.15
2022-09-27T18:24:20.004Z,4.82
2022-09-27T18:26:46.661Z,4.53
2022-09-27T18:29:17.388Z,3.80
2022-09-27T18:31:48.404Z,3.38
2022-09-27T18:34:19.153Z,3.58
2022-09-27T18:36:46.060Z,3.58
2022-09-27T18:39:17.192Z,4.05
2022-09-27T18:41:43.714Z,3.20
2022-09-27T18:44:12.861Z,3.65
2022-09-27T18:46:39.457Z,4.18
2022-09-27T18:49:08.337Z,4.05
2022-09-27T18:51:37.289Z,5.07
2022-09-27T18:54:07.329Z,4.60
2022-09-27T18:56:39.391Z,4.20
2022-09-27T18:59:08.442Z,4.63
2022-09-27T19:01:40.169Z,4.75
2022-09-27T19:04:07.870Z,4.93
2022-09-27T19:06:35.137Z,5.05
2022-09-27T19:09:03.469Z,5.53
2022-09-27T19:11:29.935Z,5.05
2022-09-27T19:13:57.944Z,5.40
2022-09-27T19:16:25.718Z,5.35
2022-09-27T19:18:52.322Z,5.55
2022-09-27T19:21:21.260Z,4.88
2022-09-27T19:23:48.930Z,5.75
2022-09-27T19:26:18.289Z,5.80
2022-09-27T19:28:58.671Z,5.82
2022-09-27T19:31:29.203Z,5.80
2022-09-27T19:33:59.898Z,5.22
2022-09-27T19:36:29.253Z,6.45
2022-09-27T19:38:58.282Z,5.72
2022-09-27T19:41:24.949Z,5.32
2022-09-27T19:43:52.578Z,5.13
2022-09-27T19:46:20.512Z,5.88
2022-09-27T19:48:48.332Z,6.30
2022-09-27T19:51:16.948Z,5.63
2022-09-27T19:53:43.742Z,6.53
2022-09-27T19:56:11.208Z,6.38
2022-09-27T19:58:39.503Z,4.90
2022-09-27T20:01:06.339Z,4.88
2022-09-27T20:03:34.006Z,4.55
2022-09-27T20:06:01.479Z,4.60
2022-09-27T20:08:28.994Z,4.53
2022-09-27T20:11:10.652Z,5.13
2022-09-27T20:13:37.869Z,9.20
2022-09-27T20:16:10.382Z,10.20
2022-09-27T20:18:42.261Z,8.30
2022-09-27T20:21:09.194Z,4.97
2022-09-27T20:23:35.727Z,5.15
2022-09-27T20:26:04.288Z,5.53
2022-09-27T20:28:30.853Z,8.00
2022-09-27T20:31:03.537Z,7.82
2022-09-27T20:33:49.570Z,7.45
2022-09-27T20:36:24.437Z,5.25
2022-09-27T20:38:59.567Z,3.15
2022-09-27T20:41:33.253Z,2.70
2022-09-27T20:44:05.189Z,2.90
2022-09-27T20:46:32.307Z,2.67
2022-09-27T20:49:01.096Z,2.60
2022-09-27T20:51:27.730Z,2.80
2022-09-27T20:53:55.097Z,3.08
2022-09-27T20:56:24.329Z,2.30
2022-09-27T20:58:54.515Z,2.85
2022-09-27T21:01:23.465Z,2.83
2022-09-27T21:03:57.632Z,2.67
2022-09-27T21:06:24.172Z,2.95
2022-09-27T21:08:51.513Z,2.88
2022-09-27T21:11:18.556Z,3.22
2022-09-27T21:13:46.334Z,2.40
2022-09-27T21:16:17.686Z,3.15
2022-09-27T21:18:44.280Z,3.30
2022-09-27T21:21:13.146Z,3.30
2022-09-27T21:23:44.549Z,3.63
2022-09-27T21:26:17.058Z,3.53
2022-09-27T21:28:46.024Z,4.32
2022-09-27T21:31:20.188Z,4.18
2022-09-27T21:33:53.996Z,3.83
2022-09-27T21:36:25.080Z,3.33
2022-09-27T21:38:51.762Z,2.20
2022-09-27T21:41:18.814Z,1.40
2022-09-27T21:43:46.762Z,1.67
2022-09-27T21:46:19.350Z,1.25
2022-09-27T21:48:48.512Z,1.60
2022-09-27T21:51:16.530Z,1.25
2022-09-27T21:53:45.017Z,1.30
2022-09-27T21:56:11.800Z,1.27
2022-09-27T21:58:40.623Z,1.10
2022-09-27T22:01:15.132Z,1.35
2022-09-27T22:03:43.487Z,1.60
2022-09-27T22:06:12.693Z,1.10
2022-09-27T22:08:39.194Z,2.08
2022-09-27T22:11:06.125Z,3.00
2022-09-27T22:13:32.840Z,3.28
2022-09-27T22:16:07.392Z,2.10
2022-09-27T22:18:37.517Z,2.25
2022-09-27T22:21:06.456Z,2.22
2022-09-27T22:23:33.859Z,1.60
2022-09-27T22:26:01.158Z,1.65
2022-09-27T22:28:27.616Z,1.67
2022-09-27T22:30:54.054Z,1.52
2022-09-27T22:33:20.498Z,1.50
2022-09-27T22:35:48.134Z,1.20
2022-09-27T22:38:15.312Z,1.80
2022-09-27T22:40:42.108Z,2.20
2022-09-27T22:43:08.608Z,2.08
2022-09-27T22:45:35.012Z,1.73
2022-09-27T22:48:01.653Z,1.90
2022-09-27T22:50:28.054Z,1.90
2022-09-27T22:52:54.487Z,2.10
2022-09-27T22:55:20.878Z,1.98
2022-09-27T22:57:47.357Z,1.98
2022-09-27T23:00:14.028Z,1.92
2022-09-27T23:02:40.492Z,1.70
2022-09-27T23:05:07.284Z,1.73
2022-09-27T23:07:33.690Z,1.60
2022-09-27T23:10:00.161Z,2.00
2022-09-27T23:12:26.550Z,1.80
2022-09-27T23:14:52.988Z,1.95
2022-09-27T23:17:20.265Z,1.92
2022-09-27T23:19:46.691Z,1.60
2022-09-27T23:22:13.142Z,2.30
2022-09-27T23:24:39.559Z,2.38
2022-09-27T23:27:24.238Z,2.45
2022-09-27T23:29:50.743Z,2.13
2022-09-27T23:32:17.153Z,2.90
2022-09-27T23:34:43.604Z,2.88
2022-09-27T23:37:10.072Z,3.00
2022-09-27T23:39:36.561Z,3.88
2022-09-27T23:42:03.190Z,3.30
2022-09-27T23:44:29.693Z,3.20
2022-09-27T23:47:00.083Z,3.15
2022-09-27T23:49:27.451Z,2.78
2022-09-27T23:51:55.302Z,2.78
2022-09-27T23:54:21.702Z,2.50
2022-09-27T23:56:49.260Z,3.13
2022-09-27T23:59:16.915Z,2.80
